Bob Hope Airport Burbank US
ICAO: KBUR
IATA: BUR
Category: Medium
Scheduled Services: Yes

Elevation: 778 ft
TransAlt. 18000 ft.

Airport Communications:
SOCAL APP/DEP:120.4
ATIS:134.5
CLNC DEL:118
GND:123.9
HAWTHORNE RDO:122.35
TWR:118.7
UNICOM:122.95

KBUR Zoom In..

If you have problems with the map follow the link
https://www.worldairports.se/pages/airport.php?
ICAO=KBUR

Runways:

(A) RW 08 length 5802 ft width 150 ft
ILS 109.50 / hdg 76

(B) RW 15 length 6885 ft width 150 ft
---- / hdg 152

(C) RW 26 length 5802 ft width 150 ft
---- / hdg 256

(D) RW 33 length 6885 ft width 150 ft
---- / hdg 332

Location; KBUR
Day. 14 / Time. 04.53 Zulu
* Altimeter: 30.02
* Temperature: 14° c. 57.2°f.
* Wind from: 000° Speed 00 kn.
Dewpoint: 12° c.
Visibility: 3 Statute Miles.
Clouds: Clear (automated report).
Conditions: Mist.

KBUR 140453Z 00000KT 3SM BR CLR 14/12 A3002 RMK AO2 SLP157 T01390122


Wind - Calm.

 
 
jpsmedia worldairports.se 2019   terms of use